createdAt,value
2023-03-15T00:01:49.708Z,4.53
2023-03-15T00:04:18.843Z,3.90
2023-03-15T00:06:47.852Z,3.60
2023-03-15T00:09:17.289Z,3.43
2023-03-15T00:11:46.728Z,3.87
2023-03-15T00:14:17.267Z,4.07
2023-03-15T00:16:46.562Z,3.57
2023-03-15T00:19:15.849Z,4.30
2023-03-15T00:21:45.503Z,3.03
2023-03-15T00:24:14.577Z,2.90
2023-03-15T00:26:43.652Z,3.70
2023-03-15T00:29:12.694Z,3.47
2023-03-15T00:31:43.268Z,3.07
2023-03-15T00:34:13.985Z,3.90
2023-03-15T00:36:43.924Z,3.30
2023-03-15T00:39:15.406Z,4.10
2023-03-15T00:41:45.825Z,3.93
2023-03-15T00:44:14.937Z,3.97
2023-03-15T00:46:45.593Z,4.50
2023-03-15T00:49:14.656Z,4.10
2023-03-15T00:51:43.876Z,3.90
2023-03-15T00:54:14.322Z,3.93
2023-03-15T00:56:43.460Z,3.80
2023-03-15T00:59:12.751Z,3.40
2023-03-15T01:01:44.894Z,4.13
2023-03-15T01:04:15.978Z,3.80
2023-03-15T01:06:45.344Z,4.77
2023-03-15T01:09:14.368Z,4.90
2023-03-15T01:11:43.554Z,3.80
2023-03-15T01:14:13.758Z,4.70
2023-03-15T01:16:43.089Z,3.60
2023-03-15T01:19:12.310Z,4.17
2023-03-15T01:21:42.832Z,3.10
2023-03-15T01:24:14.462Z,3.80
2023-03-15T01:26:44.165Z,3.90
2023-03-15T01:29:13.698Z,3.17
2023-03-15T01:31:43.112Z,3.00
2023-03-15T01:34:12.787Z,3.97
2023-03-15T01:36:43.642Z,3.93
2023-03-15T01:39:13.259Z,3.90
2023-03-15T01:41:45.423Z,4.53
2023-03-15T01:44:16.165Z,4.17
2023-03-15T01:46:46.568Z,3.50
2023-03-15T01:49:19.554Z,3.47
2023-03-15T01:51:52.856Z,4.27
2023-03-15T01:54:25.511Z,4.50
2023-03-15T01:56:56.908Z,4.77
2023-03-15T01:59:28.030Z,4.90
2023-03-15T02:01:57.447Z,3.67
2023-03-15T02:04:27.937Z,4.27
2023-03-15T02:07:00.487Z,4.83
2023-03-15T02:09:37.929Z,4.40
2023-03-15T02:12:07.631Z,4.37
2023-03-15T02:14:37.496Z,4.17
2023-03-15T02:17:09.264Z,3.70
2023-03-15T02:19:44.295Z,4.77
2023-03-15T02:22:21.576Z,4.57
2023-03-15T02:24:53.692Z,4.00
2023-03-15T02:27:29.272Z,3.97
2023-03-15T02:29:58.531Z,4.90
2023-03-15T02:32:27.720Z,5.33
2023-03-15T02:34:59.749Z,5.10
2023-03-15T02:37:28.950Z,4.50
2023-03-15T02:39:58.059Z,4.90
2023-03-15T02:42:28.753Z,4.87
2023-03-15T02:45:02.123Z,4.43
2023-03-15T02:47:35.074Z,4.20
2023-03-15T02:50:04.905Z,4.77
2023-03-15T02:52:34.424Z,4.30
2023-03-15T02:55:04.534Z,5.47
2023-03-15T02:57:35.360Z,4.80
2023-03-15T03:00:13.844Z,5.40
2023-03-15T03:02:43.930Z,5.40
2023-03-15T03:05:13.165Z,3.97
2023-03-15T03:07:43.198Z,4.50
2023-03-15T03:10:14.463Z,4.40
2023-03-15T03:12:53.811Z,4.23
2023-03-15T03:15:31.107Z,3.97
2023-03-15T03:18:00.299Z,4.37
2023-03-15T03:20:29.393Z,4.23
2023-03-15T03:22:58.654Z,3.90
2023-03-15T03:25:27.987Z,4.63
2023-03-15T03:27:58.563Z,4.30
2023-03-15T03:30:31.313Z,4.27
2023-03-15T03:33:00.491Z,4.67
2023-03-15T03:35:29.742Z,4.10
2023-03-15T03:38:01.812Z,5.40
2023-03-15T03:40:36.159Z,4.23
2023-03-15T03:43:09.016Z,4.93
2023-03-15T03:45:38.457Z,4.47
2023-03-15T03:48:09.149Z,4.17
2023-03-15T03:50:38.336Z,4.37
2023-03-15T03:53:07.586Z,4.50
2023-03-15T03:55:37.504Z,3.43
2023-03-15T03:58:08.068Z,4.00
2023-03-15T04:00:54.435Z,5.27
2023-03-15T04:03:27.440Z,3.83
2023-03-15T04:06:05.871Z,2.43
2023-03-15T04:08:39.575Z,3.80
2023-03-15T04:11:10.027Z,2.77
2023-03-15T04:13:42.838Z,3.93
2023-03-15T04:16:14.769Z,3.40
2023-03-15T04:18:57.691Z,3.03
2023-03-15T04:21:32.020Z,3.43
2023-03-15T04:24:14.282Z,3.70
2023-03-15T04:27:02.228Z,3.27
2023-03-15T04:29:52.434Z,3.10
2023-03-15T04:32:42.688Z,3.50
2023-03-15T04:35:36.354Z,4.03
2023-03-15T04:38:29.051Z,2.83
2023-03-15T04:41:30.561Z,3.70
2023-03-15T04:44:07.745Z,3.67
2023-03-15T04:47:10.508Z,3.20
2023-03-15T04:50:05.923Z,3.47
2023-03-15T04:52:48.271Z,3.30
2023-03-15T04:55:46.587Z,5.40
2023-03-15T04:58:25.985Z,4.50
2023-03-15T05:01:38.488Z,2.63
2023-03-15T05:04:34.371Z,3.10
2023-03-15T05:07:03.427Z,3.30
2023-03-15T05:09:57.699Z,3.70
2023-03-15T05:12:47.096Z,3.50
2023-03-15T05:15:42.435Z,2.83
2023-03-15T05:18:23.634Z,3.90
2023-03-15T05:21:13.612Z,4.03
2023-03-15T05:23:59.075Z,3.37
2023-03-15T05:26:35.350Z,3.43
2023-03-15T05:29:30.570Z,4.27
2023-03-15T05:32:27.180Z,3.53
2023-03-15T05:35:14.673Z,4.20
2023-03-15T05:37:51.693Z,4.30
2023-03-15T05:40:56.068Z,3.10
2023-03-15T05:43:43.865Z,3.90
2023-03-15T05:46:39.230Z,3.50
2023-03-15T05:49:19.470Z,3.30
2023-03-15T05:51:56.546Z,3.13
2023-03-15T05:54:47.332Z,3.73
2023-03-15T05:57:22.683Z,3.30
2023-03-15T06:00:20.256Z,3.67
2023-03-15T06:02:52.306Z,3.93
2023-03-15T06:05:35.912Z,3.47
2023-03-15T06:08:07.448Z,2.60
2023-03-15T06:10:40.999Z,3.87
2023-03-15T06:13:12.443Z,3.90
2023-03-15T06:15:42.711Z,3.47
2023-03-15T06:18:13.924Z,3.90
2023-03-15T06:20:43.565Z,4.30
2023-03-15T06:23:15.632Z,3.33
2023-03-15T06:25:49.414Z,3.83
2023-03-15T06:28:19.473Z,3.43
2023-03-15T06:30:55.802Z,4.00
2023-03-15T06:33:31.944Z,3.30
2023-03-15T06:36:02.059Z,3.30
2023-03-15T06:38:32.123Z,2.87
2023-03-15T06:41:05.230Z,2.70
2023-03-15T06:43:37.169Z,2.47
2023-03-15T06:46:06.595Z,2.40
2023-03-15T06:48:36.334Z,3.30
2023-03-15T06:51:06.654Z,2.13
2023-03-15T06:53:35.703Z,2.50
2023-03-15T06:56:06.705Z,2.43
2023-03-15T06:58:35.891Z,2.30
2023-03-15T07:01:05.114Z,3.03
2023-03-15T07:03:34.416Z,2.60
2023-03-15T07:06:03.604Z,2.40
2023-03-15T07:08:32.948Z,2.37
2023-03-15T07:11:01.980Z,2.27
2023-03-15T07:13:32.602Z,2.03
2023-03-15T07:16:01.798Z,2.10
2023-03-15T07:18:30.909Z,2.47
2023-03-15T07:21:00.368Z,2.23
2023-03-15T07:23:29.659Z,2.43
2023-03-15T07:25:59.001Z,2.80
2023-03-15T07:28:28.733Z,2.10
2023-03-15T07:30:59.982Z,2.33
2023-03-15T07:33:30.454Z,2.20
2023-03-15T07:35:59.588Z,2.50
2023-03-15T07:38:30.114Z,2.40
2023-03-15T07:40:59.872Z,2.27
2023-03-15T07:43:29.445Z,1.87
2023-03-15T07:46:13.094Z,2.37
2023-03-15T07:48:42.479Z,2.57
2023-03-15T07:51:11.576Z,2.50
2023-03-15T07:53:40.675Z,2.20
2023-03-15T07:56:09.745Z,2.40
2023-03-15T07:58:39.038Z,2.87
2023-03-15T08:01:08.187Z,2.17
2023-03-15T08:04:04.305Z,2.67
2023-03-15T08:06:33.800Z,2.40
2023-03-15T08:09:05.836Z,2.40
2023-03-15T08:14:05.873Z,2.70
2023-03-15T08:16:35.349Z,2.63
2023-03-15T08:19:05.900Z,2.90
2023-03-15T08:21:35.547Z,2.40
2023-03-15T08:24:04.730Z,2.53
2023-03-15T08:26:34.075Z,2.13
2023-03-15T08:29:03.255Z,2.57
2023-03-15T08:31:33.300Z,2.87
2023-03-15T08:34:02.838Z,2.50
2023-03-15T08:36:33.552Z,2.77
2023-03-15T08:39:02.819Z,3.40
2023-03-15T08:41:31.954Z,3.43
2023-03-15T08:44:01.531Z,2.63
2023-03-15T08:46:30.938Z,3.13
2023-03-15T08:49:00.310Z,2.27
2023-03-15T08:51:31.014Z,1.87
2023-03-15T08:54:04.116Z,2.43
2023-03-15T08:56:33.854Z,4.00
2023-03-15T08:59:03.018Z,3.10
2023-03-15T09:01:32.280Z,2.70
2023-03-15T09:04:01.486Z,3.13
2023-03-15T09:06:31.425Z,3.40
2023-03-15T09:09:02.273Z,2.63
2023-03-15T09:11:31.405Z,3.43
2023-03-15T09:14:00.527Z,2.70
2023-03-15T09:16:29.874Z,2.67
2023-03-15T09:18:59.321Z,2.07
2023-03-15T09:21:28.932Z,2.87
2023-03-15T09:23:58.292Z,2.40
2023-03-15T09:26:29.076Z,3.40
2023-03-15T09:28:58.299Z,2.80
2023-03-15T09:31:27.535Z,3.20
2023-03-15T09:33:57.074Z,2.50
2023-03-15T09:36:26.292Z,2.20
2023-03-15T09:38:56.249Z,2.60
2023-03-15T09:41:34.411Z,2.73
2023-03-15T09:44:10.524Z,3.03
2023-03-15T09:46:42.706Z,4.57
2023-03-15T09:49:14.586Z,3.70
2023-03-15T09:51:48.128Z,2.47
2023-03-15T09:54:19.386Z,4.07
2023-03-15T09:56:52.335Z,3.50
2023-03-15T09:59:23.144Z,5.00
2023-03-15T10:01:55.395Z,7.00
2023-03-15T10:04:28.791Z,4.97
2023-03-15T10:06:59.192Z,3.57
2023-03-15T10:09:30.027Z,3.50
2023-03-15T10:12:04.849Z,3.87
2023-03-15T10:14:41.375Z,3.50
2023-03-15T10:17:13.195Z,6.10
2023-03-15T10:19:46.072Z,4.00
2023-03-15T10:22:17.978Z,3.80
2023-03-15T10:24:49.199Z,4.17
2023-03-15T10:27:22.379Z,4.57
2023-03-15T10:29:53.301Z,3.40
2023-03-15T10:32:24.520Z,3.20
2023-03-15T10:34:54.231Z,3.37
2023-03-15T10:37:25.918Z,3.60
2023-03-15T10:39:57.468Z,2.87
2023-03-15T10:42:29.381Z,3.93
2023-03-15T10:44:58.877Z,3.17
2023-03-15T10:47:29.088Z,3.10
2023-03-15T10:49:58.903Z,3.73
2023-03-15T10:52:35.426Z,3.27
2023-03-15T10:55:07.084Z,3.37
2023-03-15T10:57:40.455Z,3.90
2023-03-15T11:00:20.784Z,3.93
2023-03-15T11:02:51.553Z,4.20
2023-03-15T11:05:21.650Z,3.60
2023-03-15T11:07:57.856Z,3.57
2023-03-15T11:10:28.083Z,4.60
2023-03-15T11:13:13.044Z,4.20
2023-03-15T11:15:49.367Z,4.03
2023-03-15T11:18:22.430Z,5.07
2023-03-15T11:20:54.694Z,3.50
2023-03-15T11:23:26.407Z,4.60
2023-03-15T11:25:56.299Z,3.27
2023-03-15T11:28:28.381Z,2.83
2023-03-15T11:31:00.953Z,3.10
2023-03-15T11:33:34.934Z,4.03
2023-03-15T11:36:06.347Z,3.87
2023-03-15T11:38:37.211Z,3.50
2023-03-15T11:41:12.000Z,3.47
2023-03-15T11:43:50.221Z,3.80
2023-03-15T11:46:23.568Z,3.67
2023-03-15T11:48:53.721Z,4.03
2023-03-15T11:51:23.423Z,3.23
2023-03-15T11:53:58.219Z,3.00
2023-03-15T11:56:28.313Z,3.30
2023-03-15T11:59:11.473Z,5.67
2023-03-15T12:01:44.492Z,3.70
2023-03-15T12:04:34.679Z,3.67
2023-03-15T12:07:05.282Z,3.50
2023-03-15T12:09:41.577Z,4.20
2023-03-15T12:12:25.561Z,3.63
2023-03-15T12:15:05.489Z,3.30
2023-03-15T12:17:39.392Z,3.60
2023-03-15T12:20:10.405Z,3.83
2023-03-15T12:22:40.274Z,4.13
2023-03-15T12:25:13.910Z,4.40
2023-03-15T12:27:47.872Z,4.60
2023-03-15T12:30:24.086Z,4.40
2023-03-15T12:32:54.725Z,3.87
2023-03-15T12:35:25.138Z,4.07
2023-03-15T12:37:55.060Z,4.40
2023-03-15T12:40:50.180Z,3.67
2023-03-15T12:43:37.228Z,4.47
2023-03-15T12:46:08.462Z,3.97
2023-03-15T12:48:37.605Z,4.40
2023-03-15T12:51:08.320Z,4.03
2023-03-15T12:53:43.980Z,3.37
2023-03-15T12:56:33.896Z,3.00
2023-03-15T12:59:06.352Z,3.53
2023-03-15T13:01:37.125Z,4.00
2023-03-15T13:04:06.286Z,3.40
2023-03-15T13:06:39.463Z,3.90
2023-03-15T13:09:14.891Z,4.07
2023-03-15T13:11:46.429Z,4.20
2023-03-15T13:14:32.933Z,8.63
2023-03-15T13:17:08.886Z,4.53
2023-03-15T13:19:39.845Z,4.00
2023-03-15T13:22:14.663Z,3.90
2023-03-15T13:24:47.189Z,4.10
2023-03-15T13:27:23.701Z,3.57
2023-03-15T13:29:53.650Z,4.00
2023-03-15T13:32:25.371Z,3.80
2023-03-15T13:34:54.631Z,4.50
2023-03-15T13:37:25.846Z,5.83
2023-03-15T13:39:57.093Z,4.97
2023-03-15T13:42:26.680Z,12.77
2023-03-15T13:45:15.122Z,5.07
2023-03-15T13:47:48.094Z,5.30
2023-03-15T13:50:18.455Z,5.97
2023-03-15T13:52:47.974Z,5.07
2023-03-15T13:55:18.461Z,5.97
2023-03-15T13:57:47.658Z,4.90
2023-03-15T14:00:19.339Z,4.30
2023-03-15T14:02:54.200Z,3.93
2023-03-15T14:05:27.609Z,4.07
2023-03-15T14:07:59.435Z,4.47
2023-03-15T14:10:31.147Z,4.30
2023-03-15T14:13:01.253Z,3.03
2023-03-15T14:15:37.516Z,6.10
2023-03-15T14:18:18.115Z,4.10
2023-03-15T14:20:48.587Z,3.57
2023-03-15T14:23:19.086Z,4.40
2023-03-15T14:25:53.566Z,3.17
2023-03-15T14:28:24.680Z,4.83
2023-03-15T14:30:55.569Z,4.13
2023-03-15T14:33:29.668Z,4.20
2023-03-15T14:36:00.486Z,4.37
2023-03-15T14:38:34.001Z,3.33
2023-03-15T14:41:15.384Z,4.63
2023-03-15T14:43:44.622Z,6.07
2023-03-15T14:46:13.924Z,3.33
2023-03-15T14:48:44.984Z,3.80
2023-03-15T14:51:16.014Z,3.87
2023-03-15T14:53:45.932Z,4.50
2023-03-15T14:56:15.773Z,7.00
2023-03-15T14:58:46.016Z,4.30
2023-03-15T15:01:16.978Z,3.70
2023-03-15T15:03:49.073Z,3.87
2023-03-15T15:06:18.682Z,4.57
2023-03-15T15:08:49.368Z,3.40
2023-03-15T15:11:18.552Z,5.97
2023-03-15T15:13:47.860Z,5.80
2023-03-15T15:16:17.578Z,3.47
2023-03-15T15:18:48.199Z,3.70
2023-03-15T15:21:20.410Z,3.00
2023-03-15T15:23:59.647Z,5.07
2023-03-15T15:26:30.320Z,4.80
2023-03-15T15:28:59.818Z,2.93
2023-03-15T15:31:34.039Z,4.50
2023-03-15T15:34:05.383Z,4.30
2023-03-15T15:36:35.344Z,3.87
2023-03-15T15:39:07.100Z,3.70
2023-03-15T15:41:36.943Z,4.43
2023-03-15T15:44:06.128Z,4.53
2023-03-15T15:46:35.932Z,4.53
2023-03-15T15:49:06.559Z,4.00
2023-03-15T15:51:38.176Z,3.47
2023-03-15T15:54:08.276Z,4.07
2023-03-15T15:56:40.247Z,6.97
2023-03-15T15:59:13.902Z,4.93
2023-03-15T16:01:58.912Z,3.40
2023-03-15T16:04:30.082Z,3.43
2023-03-15T16:07:01.876Z,13.03
2023-03-15T16:09:32.335Z,3.40
2023-03-15T16:12:01.548Z,3.73
2023-03-15T16:14:30.792Z,4.70
2023-03-15T16:17:00.020Z,5.47
2023-03-15T16:19:30.772Z,3.90
2023-03-15T16:21:59.964Z,5.40
2023-03-15T16:24:31.227Z,3.63
2023-03-15T16:27:01.977Z,3.70
2023-03-15T16:29:34.536Z,4.57
2023-03-15T16:32:16.031Z,3.63
2023-03-15T16:34:49.146Z,4.77
2023-03-15T16:37:20.279Z,4.93
2023-03-15T16:39:51.178Z,3.70
2023-03-15T16:42:21.222Z,3.80
2023-03-15T16:44:51.677Z,5.43
2023-03-15T16:47:21.392Z,3.87
2023-03-15T16:49:52.062Z,6.10
2023-03-15T16:52:21.614Z,3.60
2023-03-15T16:54:50.973Z,3.40
2023-03-15T16:57:23.088Z,3.60
2023-03-15T16:59:52.603Z,3.70
2023-03-15T17:02:22.671Z,4.47
2023-03-15T17:04:53.924Z,4.23
2023-03-15T17:07:24.878Z,4.30
2023-03-15T17:09:54.119Z,5.87
2023-03-15T17:12:24.550Z,3.47
2023-03-15T17:14:54.057Z,4.70
2023-03-15T17:17:23.275Z,3.97
2023-03-15T17:19:54.315Z,3.60
2023-03-15T17:22:23.782Z,4.40
2023-03-15T17:24:52.917Z,6.30
2023-03-15T17:27:23.801Z,4.10
2023-03-15T17:29:53.148Z,4.60
2023-03-15T17:32:26.504Z,6.20
2023-03-15T17:34:59.123Z,3.90
2023-03-15T17:37:30.854Z,3.83
2023-03-15T17:40:01.261Z,3.83
2023-03-15T17:42:30.693Z,3.50
2023-03-15T17:45:01.182Z,4.43
2023-03-15T17:47:32.480Z,4.07
2023-03-15T17:50:03.308Z,3.73
2023-03-15T17:52:32.898Z,3.30
2023-03-15T17:55:01.959Z,4.27
2023-03-15T17:57:31.451Z,4.43
2023-03-15T18:00:00.700Z,3.50
2023-03-15T18:02:32.243Z,4.70
2023-03-15T18:05:04.609Z,3.33
2023-03-15T18:07:34.370Z,3.53
2023-03-15T18:10:03.733Z,3.87
2023-03-15T18:12:33.059Z,4.60
2023-03-15T18:15:02.286Z,3.60
2023-03-15T18:17:31.444Z,4.60
2023-03-15T18:20:00.746Z,4.30
2023-03-15T18:22:31.277Z,3.40
2023-03-15T18:25:01.442Z,4.27
2023-03-15T18:27:30.747Z,4.83
2023-03-15T18:30:00.417Z,4.60
2023-03-15T18:32:29.649Z,5.90
2023-03-15T18:34:59.191Z,6.60
2023-03-15T18:37:28.382Z,5.50
2023-03-15T18:39:58.975Z,4.67
2023-03-15T18:42:28.578Z,5.53
2023-03-15T18:44:57.813Z,4.00
2023-03-15T18:47:26.860Z,4.20
2023-03-15T18:50:04.461Z,4.83
2023-03-15T18:52:39.131Z,4.50
2023-03-15T18:55:10.996Z,4.00
2023-03-15T18:57:42.004Z,5.70
2023-03-15T19:00:13.818Z,6.00
2023-03-15T19:02:43.036Z,6.30
2023-03-15T19:05:12.948Z,4.70
2023-03-15T19:07:42.355Z,4.33
2023-03-15T19:10:14.749Z,5.80
2023-03-15T19:12:44.917Z,6.33
2023-03-15T19:15:17.421Z,6.97
2023-03-15T19:17:47.196Z,6.60
2023-03-15T19:20:17.308Z,9.37
2023-03-15T19:22:46.714Z,7.77
2023-03-15T19:25:17.204Z,6.60
2023-03-15T19:27:46.689Z,6.63
2023-03-15T19:30:21.209Z,7.67
2023-03-15T19:32:51.136Z,5.13
2023-03-15T19:35:21.306Z,6.70
2023-03-15T19:37:51.097Z,10.37
2023-03-15T19:40:22.147Z,7.83
2023-03-15T19:42:51.553Z,6.50
2023-03-15T19:45:20.944Z,5.67
2023-03-15T19:47:50.088Z,7.90
2023-03-15T19:50:19.766Z,5.80
2023-03-15T19:52:49.071Z,8.33
2023-03-15T19:55:18.815Z,7.43
2023-03-15T19:57:49.721Z,6.47
2023-03-15T20:00:20.065Z,9.60
2023-03-15T20:02:49.891Z,6.90
2023-03-15T20:05:20.542Z,7.93
2023-03-15T20:07:50.906Z,7.60
2023-03-15T20:10:20.913Z,8.30
2023-03-15T20:12:51.820Z,7.77
2023-03-15T20:15:21.397Z,8.40
2023-03-15T20:17:50.558Z,8.17
2023-03-15T20:20:21.344Z,8.47
2023-03-15T20:22:51.038Z,6.73
2023-03-15T20:25:20.720Z,6.03
2023-03-15T20:27:51.325Z,8.47
2023-03-15T20:30:21.145Z,6.57
2023-03-15T20:32:50.668Z,5.50
2023-03-15T20:35:20.166Z,6.30
2023-03-15T20:37:49.632Z,6.23
2023-03-15T20:40:18.902Z,7.07
2023-03-15T20:42:48.166Z,6.57
2023-03-15T20:45:18.828Z,6.67
2023-03-15T20:47:47.937Z,5.73
2023-03-15T20:50:17.101Z,6.07
2023-03-15T20:52:46.221Z,5.93
2023-03-15T20:55:15.370Z,5.90
2023-03-15T20:57:44.617Z,4.70
2023-03-15T21:00:18.521Z,5.90
2023-03-15T21:02:49.360Z,5.40
2023-03-15T21:05:19.029Z,5.17
2023-03-15T21:07:48.238Z,5.00
2023-03-15T21:10:17.257Z,6.57
2023-03-15T21:12:46.765Z,7.80
2023-03-15T21:15:18.029Z,5.33
2023-03-15T21:17:49.133Z,4.93
2023-03-15T21:20:20.138Z,4.70
2023-03-15T21:22:49.481Z,5.40
2023-03-15T21:25:18.636Z,4.53
2023-03-15T21:27:47.724Z,6.23
2023-03-15T21:30:17.043Z,4.10
2023-03-15T21:32:46.646Z,4.87
2023-03-15T21:35:17.282Z,4.77
2023-03-15T21:37:48.134Z,5.20
2023-03-15T21:40:17.827Z,4.43
2023-03-15T21:42:47.944Z,3.93
2023-03-15T21:45:17.255Z,5.67
2023-03-15T21:47:47.130Z,5.03
2023-03-15T21:50:16.865Z,4.13
2023-03-15T21:52:46.254Z,4.20
2023-03-15T21:55:17.020Z,5.67
2023-03-15T21:57:46.322Z,6.53
2023-03-15T22:00:19.696Z,5.87
2023-03-15T22:02:49.507Z,7.37
2023-03-15T22:05:18.716Z,5.40
2023-03-15T22:07:47.874Z,7.63
2023-03-15T22:10:19.871Z,9.10
2023-03-15T22:12:49.133Z,7.83
2023-03-15T22:15:18.437Z,8.13
2023-03-15T22:17:47.736Z,6.50
2023-03-15T22:20:17.257Z,6.47
2023-03-15T22:22:47.000Z,7.97
2023-03-15T22:25:16.359Z,6.10
2023-03-15T22:27:46.991Z,5.47
2023-03-15T22:30:17.912Z,6.53
2023-03-15T22:32:47.248Z,5.83
2023-03-15T22:35:18.116Z,7.53
2023-03-15T22:37:47.475Z,6.77
2023-03-15T22:40:17.005Z,5.40
2023-03-15T22:42:49.850Z,8.40
2023-03-15T22:45:19.503Z,5.10
2023-03-15T22:47:49.079Z,6.70
2023-03-15T22:50:18.618Z,6.47
2023-03-15T22:52:47.682Z,7.37
2023-03-15T22:55:16.908Z,7.33
2023-03-15T22:57:45.958Z,18.43
2023-03-15T23:00:17.504Z,6.77
2023-03-15T23:02:47.128Z,8.27
2023-03-15T23:05:16.530Z,6.17
2023-03-15T23:07:45.789Z,5.70
2023-03-15T23:10:14.886Z,6.00
2023-03-15T23:12:44.267Z,7.80
2023-03-15T23:15:14.696Z,6.23
2023-03-15T23:17:47.065Z,6.53
2023-03-15T23:20:17.359Z,7.53
2023-03-15T23:22:46.645Z,6.80
2023-03-15T23:25:17.380Z,5.70
2023-03-15T23:27:46.575Z,5.03
2023-03-15T23:30:16.200Z,5.27
2023-03-15T23:32:47.034Z,6.63
2023-03-15T23:35:16.364Z,6.00
2023-03-15T23:37:45.378Z,6.97
2023-03-15T23:40:15.808Z,6.57
2023-03-15T23:42:45.617Z,5.50
2023-03-15T23:45:15.820Z,4.97
2023-03-15T23:47:46.558Z,5.20
2023-03-15T23:50:17.353Z,5.90
2023-03-15T23:52:46.435Z,5.40
2023-03-15T23:55:15.432Z,6.30
2023-03-15T23:57:44.428Z,6.60
